sensor_id;sensor_type;location;lat;lon;timestamp;P1;durP1;ratioP1;P2;durP2;ratioP2
78302;SDS011;67559;24.140;-110.296;2024-01-11T00:00:30;10.95;;;1.75;;
78302;SDS011;67559;24.140;-110.296;2024-01-11T00:03:04;11.50;;;1.95;;
78302;SDS011;67559;24.140;-110.296;2024-01-11T00:05:33;9.07;;;1.58;;
78302;SDS011;67559;24.140;-110.296;2024-01-11T00:08:03;11.70;;;1.80;;
78302;SDS011;67559;24.140;-110.296;2024-01-11T00:10:33;15.73;;;4.03;;
78302;SDS011;67559;24.140;-110.296;2024-01-11T00:13:02;11.55;;;3.03;;
78302;SDS011;67559;24.140;-110.296;2024-01-11T00:20:40;31.13;;;5.82;;
78302;SDS011;67559;24.140;-110.296;2024-01-11T00:25:37;32.28;;;4.95;;
78302;SDS011;67559;24.140;-110.296;2024-01-11T00:28:07;20.50;;;5.05;;
78302;SDS011;67559;24.140;-110.296;2024-01-11T00:30:44;18.17;;;3.33;;
78302;SDS011;67559;24.140;-110.296;2024-01-11T00:33:17;15.93;;;2.95;;
78302;SDS011;67559;24.140;-110.296;2024-01-11T00:35:51;20.13;;;3.15;;
78302;SDS011;67559;24.140;-110.296;2024-01-11T00:38:21;20.35;;;3.55;;
78302;SDS011;67559;24.140;-110.296;2024-01-11T00:40:54;10.05;;;2.15;;
78302;SDS011;67559;24.140;-110.296;2024-01-11T00:43:24;17.17;;;2.88;;
78302;SDS011;67559;24.140;-110.296;2024-01-11T00:48:22;17.08;;;1.65;;
78302;SDS011;67559;24.140;-110.296;2024-01-11T00:50:59;17.85;;;2.92;;
78302;SDS011;67559;24.140;-110.296;2024-01-11T00:53:29;13.23;;;1.88;;
78302;SDS011;67559;24.140;-110.296;2024-01-11T00:56:01;11.05;;;2.17;;
78302;SDS011;67559;24.140;-110.296;2024-01-11T00:58:32;15.13;;;2.45;;
78302;SDS011;67559;24.140;-110.296;2024-01-11T01:01:01;23.23;;;2.60;;
78302;SDS011;67559;24.140;-110.296;2024-01-11T01:03:44;23.13;;;3.00;;
78302;SDS011;67559;24.140;-110.296;2024-01-11T01:06:14;28.95;;;3.50;;
78302;SDS011;67559;24.140;-110.296;2024-01-11T01:08:50;60.33;;;6.20;;
78302;SDS011;67559;24.140;-110.296;2024-01-11T01:11:23;117.72;;;10.32;;
78302;SDS011;67559;24.140;-110.296;2024-01-11T01:16:48;54.75;;;6.00;;
78302;SDS011;67559;24.140;-110.296;2024-01-11T01:21:46;43.37;;;5.40;;
78302;SDS011;67559;24.140;-110.296;2024-01-11T01:24:18;40.70;;;5.15;;
78302;SDS011;67559;24.140;-110.296;2024-01-11T01:26:47;31.00;;;4.05;;
78302;SDS011;67559;24.140;-110.296;2024-01-11T01:29:32;39.55;;;5.10;;
78302;SDS011;67559;24.140;-110.296;2024-01-11T01:32:07;36.85;;;5.07;;
78302;SDS011;67559;24.140;-110.296;2024-01-11T01:34:39;73.57;;;6.00;;
78302;SDS011;67559;24.140;-110.296;2024-01-11T01:37:21;53.03;;;5.07;;
78302;SDS011;67559;24.140;-110.296;2024-01-11T01:40:03;63.42;;;7.80;;
78302;SDS011;67559;24.140;-110.296;2024-01-11T01:42:48;45.67;;;7.10;;
78302;SDS011;67559;24.140;-110.296;2024-01-11T01:45:17;37.72;;;6.07;;
78302;SDS011;67559;24.140;-110.296;2024-01-11T01:48:00;32.70;;;6.47;;
78302;SDS011;67559;24.140;-110.296;2024-01-11T01:50:38;46.65;;;7.22;;
78302;SDS011;67559;24.140;-110.296;2024-01-11T01:53:09;46.90;;;8.98;;
78302;SDS011;67559;24.140;-110.296;2024-01-11T01:55:42;53.40;;;9.18;;
78302;SDS011;67559;24.140;-110.296;2024-01-11T01:58:13;43.13;;;8.43;;
78302;SDS011;67559;24.140;-110.296;2024-01-11T02:00:44;37.25;;;6.85;;
78302;SDS011;67559;24.140;-110.296;2024-01-11T02:03:15;38.00;;;7.13;;
78302;SDS011;67559;24.140;-110.296;2024-01-11T02:05:47;42.08;;;7.30;;
78302;SDS011;67559;24.140;-110.296;2024-01-11T02:08:18;32.22;;;5.95;;
78302;SDS011;67559;24.140;-110.296;2024-01-11T02:10:51;24.80;;;5.05;;
78302;SDS011;67559;24.140;-110.296;2024-01-11T02:13:20;35.25;;;5.88;;
78302;SDS011;67559;24.140;-110.296;2024-01-11T02:15:50;36.70;;;6.50;;
78302;SDS011;67559;24.140;-110.296;2024-01-11T02:18:19;25.65;;;5.55;;
78302;SDS011;67559;24.140;-110.296;2024-01-11T02:20:48;16.27;;;3.63;;
78302;SDS011;67559;24.140;-110.296;2024-01-11T02:23:19;18.58;;;3.47;;
78302;SDS011;67559;24.140;-110.296;2024-01-11T02:25:50;27.40;;;3.05;;
78302;SDS011;67559;24.140;-110.296;2024-01-11T02:30:48;12.82;;;2.38;;
78302;SDS011;67559;24.140;-110.296;2024-01-11T02:33:19;23.63;;;3.20;;
78302;SDS011;67559;24.140;-110.296;2024-01-11T02:38:18;46.85;;;6.43;;
78302;SDS011;67559;24.140;-110.296;2024-01-11T02:40:48;41.58;;;7.18;;
78302;SDS011;67559;24.140;-110.296;2024-01-11T02:43:22;40.33;;;6.68;;
78302;SDS011;67559;24.140;-110.296;2024-01-11T02:45:55;45.75;;;6.90;;
78302;SDS011;67559;24.140;-110.296;2024-01-11T02:48:29;59.88;;;8.00;;
78302;SDS011;67559;24.140;-110.296;2024-01-11T02:51:01;40.25;;;7.00;;
78302;SDS011;67559;24.140;-110.296;2024-01-11T02:53:30;39.67;;;6.60;;
78302;SDS011;67559;24.140;-110.296;2024-01-11T02:56:01;32.40;;;7.07;;
78302;SDS011;67559;24.140;-110.296;2024-01-11T02:58:31;34.50;;;6.35;;
78302;SDS011;67559;24.140;-110.296;2024-01-11T03:01:07;38.35;;;7.43;;
78302;SDS011;67559;24.140;-110.296;2024-01-11T03:03:36;46.42;;;8.52;;
78302;SDS011;67559;24.140;-110.296;2024-01-11T03:06:07;42.53;;;8.05;;
78302;SDS011;67559;24.140;-110.296;2024-01-11T03:08:39;47.78;;;8.93;;
78302;SDS011;67559;24.140;-110.296;2024-01-11T03:11:17;49.65;;;8.43;;
78302;SDS011;67559;24.140;-110.296;2024-01-11T03:13:49;59.60;;;9.85;;
78302;SDS011;67559;24.140;-110.296;2024-01-11T03:16:18;61.60;;;7.85;;
78302;SDS011;67559;24.140;-110.296;2024-01-11T03:23:49;29.30;;;3.95;;
78302;SDS011;67559;24.140;-110.296;2024-01-11T03:26:22;37.47;;;3.80;;
78302;SDS011;67559;24.140;-110.296;2024-01-11T03:28:52;29.73;;;3.15;;
78302;SDS011;67559;24.140;-110.296;2024-01-11T03:31:21;17.75;;;2.83;;
78302;SDS011;67559;24.140;-110.296;2024-01-11T03:33:51;19.73;;;2.88;;
78302;SDS011;67559;24.140;-110.296;2024-01-11T03:39:01;29.35;;;3.22;;
78302;SDS011;67559;24.140;-110.296;2024-01-11T03:41:32;24.30;;;3.20;;
78302;SDS011;67559;24.140;-110.296;2024-01-11T03:46:30;16.70;;;2.13;;
78302;SDS011;67559;24.140;-110.296;2024-01-11T03:49:00;17.00;;;1.65;;
78302;SDS011;67559;24.140;-110.296;2024-01-11T03:51:31;9.07;;;1.40;;
78302;SDS011;67559;24.140;-110.296;2024-01-11T03:54:01;12.43;;;1.88;;
78302;SDS011;67559;24.140;-110.296;2024-01-11T03:56:33;17.58;;;1.92;;
78302;SDS011;67559;24.140;-110.296;2024-01-11T03:59:22;10.57;;;1.55;;
78302;SDS011;67559;24.140;-110.296;2024-01-11T04:01:53;16.20;;;1.65;;
78302;SDS011;67559;24.140;-110.296;2024-01-11T04:04:33;11.57;;;1.25;;
78302;SDS011;67559;24.140;-110.296;2024-01-11T04:07:05;12.15;;;1.63;;
78302;SDS011;67559;24.140;-110.296;2024-01-11T04:09:36;10.95;;;1.60;;
78302;SDS011;67559;24.140;-110.296;2024-01-11T04:12:07;11.82;;;1.85;;
78302;SDS011;67559;24.140;-110.296;2024-01-11T04:14:40;22.20;;;2.13;;
78302;SDS011;67559;24.140;-110.296;2024-01-11T04:17:11;15.55;;;2.00;;
78302;SDS011;67559;24.140;-110.296;2024-01-11T04:19:40;24.88;;;2.58;;
78302;SDS011;67559;24.140;-110.296;2024-01-11T04:22:11;23.67;;;2.17;;
78302;SDS011;67559;24.140;-110.296;2024-01-11T04:24:42;15.00;;;1.60;;
78302;SDS011;67559;24.140;-110.296;2024-01-11T04:27:12;15.68;;;1.45;;
78302;SDS011;67559;24.140;-110.296;2024-01-11T04:30:05;10.45;;;1.38;;
78302;SDS011;67559;24.140;-110.296;2024-01-11T04:32:35;12.38;;;1.50;;
78302;SDS011;67559;24.140;-110.296;2024-01-11T04:35:06;15.52;;;1.60;;
78302;SDS011;67559;24.140;-110.296;2024-01-11T04:37:36;19.50;;;2.10;;
78302;SDS011;67559;24.140;-110.296;2024-01-11T04:40:06;15.60;;;1.63;;
78302;SDS011;67559;24.140;-110.296;2024-01-11T04:45:03;17.50;;;2.67;;
78302;SDS011;67559;24.140;-110.296;2024-01-11T04:47:37;28.00;;;2.60;;
78302;SDS011;67559;24.140;-110.296;2024-01-11T04:50:08;25.75;;;2.42;;
78302;SDS011;67559;24.140;-110.296;2024-01-11T04:52:38;10.75;;;1.95;;
78302;SDS011;67559;24.140;-110.296;2024-01-11T04:55:07;12.43;;;1.80;;
78302;SDS011;67559;24.140;-110.296;2024-01-11T04:57:41;16.85;;;1.40;;
78302;SDS011;67559;24.140;-110.296;2024-01-11T05:00:12;10.90;;;2.00;;
78302;SDS011;67559;24.140;-110.296;2024-01-11T05:02:41;7.63;;;1.30;;
78302;SDS011;67559;24.140;-110.296;2024-01-11T05:05:12;14.27;;;1.33;;
78302;SDS011;67559;24.140;-110.296;2024-01-11T05:07:43;9.15;;;1.40;;
78302;SDS011;67559;24.140;-110.296;2024-01-11T05:10:12;12.32;;;1.20;;
78302;SDS011;67559;24.140;-110.296;2024-01-11T05:12:42;14.98;;;1.85;;
78302;SDS011;67559;24.140;-110.296;2024-01-11T05:15:13;5.60;;;1.27;;
78302;SDS011;67559;24.140;-110.296;2024-01-11T05:17:42;8.75;;;1.42;;
78302;SDS011;67559;24.140;-110.296;2024-01-11T05:20:12;4.72;;;1.48;;
78302;SDS011;67559;24.140;-110.296;2024-01-11T05:25:16;11.30;;;1.85;;
78302;SDS011;67559;24.140;-110.296;2024-01-11T05:27:46;11.23;;;0.93;;
78302;SDS011;67559;24.140;-110.296;2024-01-11T05:30:19;13.30;;;1.77;;
78302;SDS011;67559;24.140;-110.296;2024-01-11T05:32:48;8.85;;;1.65;;
78302;SDS011;67559;24.140;-110.296;2024-01-11T05:35:18;37.00;;;3.65;;
78302;SDS011;67559;24.140;-110.296;2024-01-11T05:37:50;51.53;;;4.43;;
78302;SDS011;67559;24.140;-110.296;2024-01-11T05:40:28;10.23;;;1.70;;
78302;SDS011;67559;24.140;-110.296;2024-01-11T05:45:31;14.00;;;1.75;;
78302;SDS011;67559;24.140;-110.296;2024-01-11T05:48:06;18.42;;;2.03;;
78302;SDS011;67559;24.140;-110.296;2024-01-11T05:50:36;20.30;;;2.40;;
78302;SDS011;67559;24.140;-110.296;2024-01-11T05:53:06;12.55;;;1.63;;
78302;SDS011;67559;24.140;-110.296;2024-01-11T05:55:36;11.45;;;1.75;;
78302;SDS011;67559;24.140;-110.296;2024-01-11T05:58:07;15.20;;;1.48;;
78302;SDS011;67559;24.140;-110.296;2024-01-11T06:00:37;14.38;;;1.55;;
78302;SDS011;67559;24.140;-110.296;2024-01-11T06:03:11;11.13;;;1.95;;
78302;SDS011;67559;24.140;-110.296;2024-01-11T06:05:42;8.93;;;1.38;;
78302;SDS011;67559;24.140;-110.296;2024-01-11T06:08:12;9.80;;;1.60;;
78302;SDS011;67559;24.140;-110.296;2024-01-11T06:10:44;13.98;;;1.65;;
78302;SDS011;67559;24.140;-110.296;2024-01-11T06:13:13;12.63;;;1.33;;
78302;SDS011;67559;24.140;-110.296;2024-01-11T06:15:43;9.35;;;1.65;;
78302;SDS011;67559;24.140;-110.296;2024-01-11T06:18:13;8.80;;;1.30;;
78302;SDS011;67559;24.140;-110.296;2024-01-11T06:20:43;6.45;;;1.27;;
78302;SDS011;67559;24.140;-110.296;2024-01-11T06:23:15;6.18;;;0.98;;
78302;SDS011;67559;24.140;-110.296;2024-01-11T06:25:46;5.57;;;1.08;;
78302;SDS011;67559;24.140;-110.296;2024-01-11T06:28:20;8.55;;;1.10;;
78302;SDS011;67559;24.140;-110.296;2024-01-11T06:30:50;4.05;;;0.82;;
78302;SDS011;67559;24.140;-110.296;2024-01-11T06:33:21;3.97;;;0.88;;
78302;SDS011;67559;24.140;-110.296;2024-01-11T06:35:51;6.53;;;0.88;;
78302;SDS011;67559;24.140;-110.296;2024-01-11T06:38:34;14.20;;;1.13;;
78302;SDS011;67559;24.140;-110.296;2024-01-11T06:41:03;17.40;;;1.50;;
78302;SDS011;67559;24.140;-110.296;2024-01-11T06:46:05;12.25;;;1.10;;
78302;SDS011;67559;24.140;-110.296;2024-01-11T06:48:37;6.07;;;1.20;;
78302;SDS011;67559;24.140;-110.296;2024-01-11T06:51:06;3.60;;;1.25;;
78302;SDS011;67559;24.140;-110.296;2024-01-11T06:53:37;5.25;;;1.45;;
78302;SDS011;67559;24.140;-110.296;2024-01-11T06:56:18;13.93;;;1.30;;
78302;SDS011;67559;24.140;-110.296;2024-01-11T06:58:49;4.07;;;1.08;;
78302;SDS011;67559;24.140;-110.296;2024-01-11T07:01:20;7.57;;;1.40;;
78302;SDS011;67559;24.140;-110.296;2024-01-11T07:03:50;8.60;;;1.50;;
78302;SDS011;67559;24.140;-110.296;2024-01-11T07:08:48;9.52;;;1.00;;
78302;SDS011;67559;24.140;-110.296;2024-01-11T07:11:17;4.03;;;1.10;;
78302;SDS011;67559;24.140;-110.296;2024-01-11T07:13:47;5.07;;;1.42;;
78302;SDS011;67559;24.140;-110.296;2024-01-11T07:16:17;8.25;;;1.38;;
78302;SDS011;67559;24.140;-110.296;2024-01-11T07:18:50;7.40;;;1.23;;
78302;SDS011;67559;24.140;-110.296;2024-01-11T07:21:21;8.80;;;1.48;;
78302;SDS011;67559;24.140;-110.296;2024-01-11T07:23:59;15.23;;;1.63;;
78302;SDS011;67559;24.140;-110.296;2024-01-11T07:26:29;5.97;;;1.30;;
78302;SDS011;67559;24.140;-110.296;2024-01-11T07:28:59;5.53;;;1.27;;
78302;SDS011;67559;24.140;-110.296;2024-01-11T07:31:31;9.93;;;1.80;;
78302;SDS011;67559;24.140;-110.296;2024-01-11T07:34:01;6.78;;;1.70;;
78302;SDS011;67559;24.140;-110.296;2024-01-11T07:36:31;8.73;;;1.10;;
78302;SDS011;67559;24.140;-110.296;2024-01-11T07:39:00;9.38;;;1.20;;
78302;SDS011;67559;24.140;-110.296;2024-01-11T07:41:30;7.72;;;1.55;;
78302;SDS011;67559;24.140;-110.296;2024-01-11T07:44:00;7.57;;;1.42;;
78302;SDS011;67559;24.140;-110.296;2024-01-11T07:58:31;7.82;;;1.27;;
78302;SDS011;67559;24.140;-110.296;2024-01-11T08:01:03;13.43;;;1.50;;
78302;SDS011;67559;24.140;-110.296;2024-01-11T08:03:33;6.47;;;1.15;;
78302;SDS011;67559;24.140;-110.296;2024-01-11T08:06:14;8.95;;;1.48;;
78302;SDS011;67559;24.140;-110.296;2024-01-11T08:08:47;9.60;;;1.27;;
78302;SDS011;67559;24.140;-110.296;2024-01-11T08:11:18;4.85;;;1.20;;
78302;SDS011;67559;24.140;-110.296;2024-01-11T08:13:49;7.07;;;1.30;;
78302;SDS011;67559;24.140;-110.296;2024-01-11T08:16:21;6.03;;;0.95;;
78302;SDS011;67559;24.140;-110.296;2024-01-11T08:18:51;6.75;;;1.15;;
78302;SDS011;67559;24.140;-110.296;2024-01-11T08:21:23;7.20;;;1.17;;
78302;SDS011;67559;24.140;-110.296;2024-01-11T08:23:52;9.02;;;1.00;;
78302;SDS011;67559;24.140;-110.296;2024-01-11T08:26:22;4.72;;;1.10;;
78302;SDS011;67559;24.140;-110.296;2024-01-11T08:31:31;4.50;;;1.08;;
78302;SDS011;67559;24.140;-110.296;2024-01-11T08:34:01;8.23;;;1.33;;
78302;SDS011;67559;24.140;-110.296;2024-01-11T08:36:35;10.00;;;0.95;;
78302;SDS011;67559;24.140;-110.296;2024-01-11T08:39:06;8.38;;;1.30;;
78302;SDS011;67559;24.140;-110.296;2024-01-11T08:41:40;7.03;;;1.30;;
78302;SDS011;67559;24.140;-110.296;2024-01-11T08:46:37;2.95;;;0.88;;
78302;SDS011;67559;24.140;-110.296;2024-01-11T08:49:07;6.05;;;1.27;;
78302;SDS011;67559;24.140;-110.296;2024-01-11T08:51:39;10.95;;;1.00;;
78302;SDS011;67559;24.140;-110.296;2024-01-11T08:54:12;3.50;;;0.60;;
78302;SDS011;67559;24.140;-110.296;2024-01-11T08:56:44;3.58;;;0.85;;
78302;SDS011;67559;24.140;-110.296;2024-01-11T08:59:15;5.63;;;0.82;;
78302;SDS011;67559;24.140;-110.296;2024-01-11T09:01:45;8.00;;;1.30;;
78302;SDS011;67559;24.140;-110.296;2024-01-11T09:04:15;7.00;;;1.00;;
78302;SDS011;67559;24.140;-110.296;2024-01-11T09:06:48;3.90;;;0.50;;
78302;SDS011;67559;24.140;-110.296;2024-01-11T09:09:20;4.18;;;0.90;;
78302;SDS011;67559;24.140;-110.296;2024-01-11T09:11:51;7.20;;;1.40;;
78302;SDS011;67559;24.140;-110.296;2024-01-11T09:14:21;4.88;;;1.15;;
78302;SDS011;67559;24.140;-110.296;2024-01-11T09:16:55;9.50;;;0.98;;
78302;SDS011;67559;24.140;-110.296;2024-01-11T09:19:26;8.63;;;1.08;;
78302;SDS011;67559;24.140;-110.296;2024-01-11T09:21:58;7.28;;;0.95;;
78302;SDS011;67559;24.140;-110.296;2024-01-11T09:24:28;6.47;;;0.88;;
78302;SDS011;67559;24.140;-110.296;2024-01-11T09:26:57;7.13;;;1.20;;
78302;SDS011;67559;24.140;-110.296;2024-01-11T09:29:26;10.35;;;1.05;;
78302;SDS011;67559;24.140;-110.296;2024-01-11T09:31:58;4.95;;;1.23;;
78302;SDS011;67559;24.140;-110.296;2024-01-11T09:34:28;7.90;;;0.90;;
78302;SDS011;67559;24.140;-110.296;2024-01-11T09:36:59;7.80;;;0.93;;
78302;SDS011;67559;24.140;-110.296;2024-01-11T09:39:30;7.95;;;1.35;;
78302;SDS011;67559;24.140;-110.296;2024-01-11T09:42:07;6.57;;;1.20;;
78302;SDS011;67559;24.140;-110.296;2024-01-11T09:47:12;5.82;;;1.35;;
78302;SDS011;67559;24.140;-110.296;2024-01-11T09:49:44;5.78;;;0.90;;
78302;SDS011;67559;24.140;-110.296;2024-01-11T09:52:18;2.88;;;0.95;;
78302;SDS011;67559;24.140;-110.296;2024-01-11T09:54:48;7.88;;;0.80;;
78302;SDS011;67559;24.140;-110.296;2024-01-11T09:57:23;8.45;;;1.38;;
78302;SDS011;67559;24.140;-110.296;2024-01-11T09:59:54;3.72;;;0.70;;
78302;SDS011;67559;24.140;-110.296;2024-01-11T10:02:26;7.47;;;0.77;;
78302;SDS011;67559;24.140;-110.296;2024-01-11T10:04:55;9.73;;;1.00;;
78302;SDS011;67559;24.140;-110.296;2024-01-11T10:07:26;11.43;;;0.88;;
78302;SDS011;67559;24.140;-110.296;2024-01-11T10:09:57;6.53;;;1.23;;
78302;SDS011;67559;24.140;-110.296;2024-01-11T10:12:28;4.13;;;0.88;;
78302;SDS011;67559;24.140;-110.296;2024-01-11T10:15:04;7.10;;;0.77;;
78302;SDS011;67559;24.140;-110.296;2024-01-11T10:17:42;10.55;;;1.45;;
78302;SDS011;67559;24.140;-110.296;2024-01-11T10:20:14;8.00;;;0.98;;
78302;SDS011;67559;24.140;-110.296;2024-01-11T10:22:50;9.93;;;1.35;;
78302;SDS011;67559;24.140;-110.296;2024-01-11T10:25:21;6.13;;;1.05;;
78302;SDS011;67559;24.140;-110.296;2024-01-11T10:27:50;4.55;;;1.80;;
78302;SDS011;67559;24.140;-110.296;2024-01-11T10:30:22;8.63;;;2.15;;
78302;SDS011;67559;24.140;-110.296;2024-01-11T10:32:52;8.18;;;2.00;;
78302;SDS011;67559;24.140;-110.296;2024-01-11T10:35:23;9.25;;;1.80;;
78302;SDS011;67559;24.140;-110.296;2024-01-11T10:37:53;12.20;;;1.48;;
78302;SDS011;67559;24.140;-110.296;2024-01-11T10:40:24;10.43;;;1.95;;
78302;SDS011;67559;24.140;-110.296;2024-01-11T10:42:55;5.18;;;1.63;;
78302;SDS011;67559;24.140;-110.296;2024-01-11T10:45:36;5.95;;;1.50;;
78302;SDS011;67559;24.140;-110.296;2024-01-11T10:48:13;5.45;;;1.20;;
78302;SDS011;67559;24.140;-110.296;2024-01-11T10:50:45;10.82;;;1.70;;
78302;SDS011;67559;24.140;-110.296;2024-01-11T10:56:04;7.80;;;1.70;;
78302;SDS011;67559;24.140;-110.296;2024-01-11T10:58:34;7.10;;;0.98;;
78302;SDS011;67559;24.140;-110.296;2024-01-11T11:01:04;4.50;;;0.85;;
78302;SDS011;67559;24.140;-110.296;2024-01-11T11:03:34;5.53;;;1.20;;
78302;SDS011;67559;24.140;-110.296;2024-01-11T11:06:05;3.30;;;0.93;;
78302;SDS011;67559;24.140;-110.296;2024-01-11T11:08:36;9.55;;;1.20;;
78302;SDS011;67559;24.140;-110.296;2024-01-11T11:11:05;5.60;;;0.75;;
78302;SDS011;67559;24.140;-110.296;2024-01-11T11:13:36;3.53;;;0.82;;
78302;SDS011;67559;24.140;-110.296;2024-01-11T11:16:06;2.80;;;0.80;;
78302;SDS011;67559;24.140;-110.296;2024-01-11T11:21:09;6.30;;;1.75;;
78302;SDS011;67559;24.140;-110.296;2024-01-11T11:23:39;21.00;;;10.55;;
78302;SDS011;67559;24.140;-110.296;2024-01-11T11:26:13;31.95;;;16.60;;
78302;SDS011;67559;24.140;-110.296;2024-01-11T11:28:44;22.77;;;9.43;;
78302;SDS011;67559;24.140;-110.296;2024-01-11T11:31:27;18.17;;;5.13;;
78302;SDS011;67559;24.140;-110.296;2024-01-11T11:34:04;13.65;;;3.70;;
78302;SDS011;67559;24.140;-110.296;2024-01-11T11:36:34;9.82;;;2.80;;
78302;SDS011;67559;24.140;-110.296;2024-01-11T11:39:04;18.33;;;2.90;;
78302;SDS011;67559;24.140;-110.296;2024-01-11T11:41:34;12.80;;;4.22;;
78302;SDS011;67559;24.140;-110.296;2024-01-11T11:44:05;10.10;;;2.35;;
78302;SDS011;67559;24.140;-110.296;2024-01-11T11:46:35;22.23;;;3.60;;
78302;SDS011;67559;24.140;-110.296;2024-01-11T11:49:05;17.95;;;5.25;;
78302;SDS011;67559;24.140;-110.296;2024-01-11T11:51:37;20.00;;;6.25;;
78302;SDS011;67559;24.140;-110.296;2024-01-11T11:54:09;21.38;;;6.93;;
78302;SDS011;67559;24.140;-110.296;2024-01-11T11:56:41;17.35;;;5.50;;
78302;SDS011;67559;24.140;-110.296;2024-01-11T11:59:12;27.17;;;9.02;;
78302;SDS011;67559;24.140;-110.296;2024-01-11T12:04:13;55.75;;;22.13;;
78302;SDS011;67559;24.140;-110.296;2024-01-11T12:06:44;22.42;;;7.07;;
78302;SDS011;67559;24.140;-110.296;2024-01-11T12:09:17;14.55;;;7.63;;
78302;SDS011;67559;24.140;-110.296;2024-01-11T12:11:49;18.80;;;9.25;;
78302;SDS011;67559;24.140;-110.296;2024-01-11T12:14:19;8.57;;;3.53;;
78302;SDS011;67559;24.140;-110.296;2024-01-11T12:16:57;5.85;;;2.42;;
78302;SDS011;67559;24.140;-110.296;2024-01-11T12:19:27;14.98;;;4.60;;
78302;SDS011;67559;24.140;-110.296;2024-01-11T12:21:59;16.25;;;6.90;;
78302;SDS011;67559;24.140;-110.296;2024-01-11T12:24:31;21.20;;;7.80;;
78302;SDS011;67559;24.140;-110.296;2024-01-11T12:27:11;10.43;;;2.30;;
78302;SDS011;67559;24.140;-110.296;2024-01-11T12:29:42;7.40;;;2.53;;
78302;SDS011;67559;24.140;-110.296;2024-01-11T12:34:44;9.43;;;1.63;;
78302;SDS011;67559;24.140;-110.296;2024-01-11T12:37:16;7.22;;;1.70;;
78302;SDS011;67559;24.140;-110.296;2024-01-11T12:39:46;11.38;;;2.10;;
78302;SDS011;67559;24.140;-110.296;2024-01-11T12:42:16;2.85;;;1.35;;
78302;SDS011;67559;24.140;-110.296;2024-01-11T12:44:45;10.93;;;1.67;;
78302;SDS011;67559;24.140;-110.296;2024-01-11T12:47:17;16.55;;;2.15;;
78302;SDS011;67559;24.140;-110.296;2024-01-11T12:49:49;8.73;;;1.73;;
78302;SDS011;67559;24.140;-110.296;2024-01-11T12:52:19;9.07;;;1.33;;
78302;SDS011;67559;24.140;-110.296;2024-01-11T12:54:52;6.63;;;1.17;;
78302;SDS011;67559;24.140;-110.296;2024-01-11T12:57:23;14.07;;;1.65;;
78302;SDS011;67559;24.140;-110.296;2024-01-11T12:59:54;13.32;;;1.52;;
78302;SDS011;67559;24.140;-110.296;2024-01-11T13:02:24;11.93;;;1.65;;
78302;SDS011;67559;24.140;-110.296;2024-01-11T13:04:53;12.02;;;1.42;;
78302;SDS011;67559;24.140;-110.296;2024-01-11T13:07:23;8.07;;;1.02;;
78302;SDS011;67559;24.140;-110.296;2024-01-11T13:09:53;11.95;;;1.45;;
78302;SDS011;67559;24.140;-110.296;2024-01-11T13:12:25;3.58;;;1.00;;
78302;SDS011;67559;24.140;-110.296;2024-01-11T13:14:56;11.65;;;1.67;;
78302;SDS011;67559;24.140;-110.296;2024-01-11T13:17:28;19.38;;;1.55;;
78302;SDS011;67559;24.140;-110.296;2024-01-11T13:19:59;11.40;;;1.52;;
78302;SDS011;67559;24.140;-110.296;2024-01-11T13:22:30;14.88;;;2.22;;
78302;SDS011;67559;24.140;-110.296;2024-01-11T13:25:13;8.35;;;1.52;;
78302;SDS011;67559;24.140;-110.296;2024-01-11T13:27:45;10.95;;;1.75;;
78302;SDS011;67559;24.140;-110.296;2024-01-11T13:30:17;7.93;;;1.10;;
78302;SDS011;67559;24.140;-110.296;2024-01-11T13:32:52;14.68;;;1.83;;
78302;SDS011;67559;24.140;-110.296;2024-01-11T13:35:23;7.18;;;1.00;;
78302;SDS011;67559;24.140;-110.296;2024-01-11T13:37:57;16.23;;;1.90;;
78302;SDS011;67559;24.140;-110.296;2024-01-11T13:40:38;9.20;;;1.80;;
78302;SDS011;67559;24.140;-110.296;2024-01-11T13:43:10;30.85;;;11.52;;
78302;SDS011;67559;24.140;-110.296;2024-01-11T13:45:44;28.25;;;9.88;;
78302;SDS011;67559;24.140;-110.296;2024-01-11T13:48:16;18.75;;;6.00;;
78302;SDS011;67559;24.140;-110.296;2024-01-11T13:50:48;19.67;;;6.60;;
78302;SDS011;67559;24.140;-110.296;2024-01-11T13:53:19;19.27;;;6.03;;
78302;SDS011;67559;24.140;-110.296;2024-01-11T13:55:50;22.77;;;5.82;;
78302;SDS011;67559;24.140;-110.296;2024-01-11T13:58:21;43.08;;;16.25;;
78302;SDS011;67559;24.140;-110.296;2024-01-11T14:00:51;52.33;;;23.08;;
78302;SDS011;67559;24.140;-110.296;2024-01-11T14:03:23;28.25;;;6.28;;
78302;SDS011;67559;24.140;-110.296;2024-01-11T14:05:54;46.88;;;8.35;;
78302;SDS011;67559;24.140;-110.296;2024-01-11T14:08:28;29.90;;;3.97;;
78302;SDS011;67559;24.140;-110.296;2024-01-11T14:10:59;18.67;;;2.33;;
78302;SDS011;67559;24.140;-110.296;2024-01-11T14:13:28;18.77;;;3.50;;
78302;SDS011;67559;24.140;-110.296;2024-01-11T14:15:58;13.52;;;3.15;;
78302;SDS011;67559;24.140;-110.296;2024-01-11T14:18:27;19.40;;;2.55;;
78302;SDS011;67559;24.140;-110.296;2024-01-11T14:20:57;18.70;;;2.67;;
78302;SDS011;67559;24.140;-110.296;2024-01-11T14:23:27;20.77;;;4.97;;
78302;SDS011;67559;24.140;-110.296;2024-01-11T14:25:56;55.28;;;11.13;;
78302;SDS011;67559;24.140;-110.296;2024-01-11T14:28:26;18.85;;;4.20;;
78302;SDS011;67559;24.140;-110.296;2024-01-11T14:30:55;19.77;;;2.70;;
78302;SDS011;67559;24.140;-110.296;2024-01-11T14:33:24;20.65;;;3.10;;
78302;SDS011;67559;24.140;-110.296;2024-01-11T14:35:53;20.58;;;2.55;;
78302;SDS011;67559;24.140;-110.296;2024-01-11T14:38:23;22.67;;;2.40;;
78302;SDS011;67559;24.140;-110.296;2024-01-11T14:40:52;16.33;;;2.08;;
78302;SDS011;67559;24.140;-110.296;2024-01-11T14:43:23;19.50;;;2.30;;
78302;SDS011;67559;24.140;-110.296;2024-01-11T14:48:21;27.17;;;2.85;;
78302;SDS011;67559;24.140;-110.296;2024-01-11T14:50:51;23.63;;;2.22;;
78302;SDS011;67559;24.140;-110.296;2024-01-11T14:53:20;18.80;;;2.03;;
78302;SDS011;67559;24.140;-110.296;2024-01-11T14:58:17;30.98;;;4.10;;
78302;SDS011;67559;24.140;-110.296;2024-01-11T15:00:48;23.88;;;2.53;;
78302;SDS011;67559;24.140;-110.296;2024-01-11T15:03:18;20.80;;;2.28;;
78302;SDS011;67559;24.140;-110.296;2024-01-11T15:05:47;26.25;;;3.08;;
78302;SDS011;67559;24.140;-110.296;2024-01-11T15:08:19;35.97;;;3.45;;
78302;SDS011;67559;24.140;-110.296;2024-01-11T15:10:48;24.50;;;1.95;;
78302;SDS011;67559;24.140;-110.296;2024-01-11T15:13:17;28.70;;;2.88;;
78302;SDS011;67559;24.140;-110.296;2024-01-11T15:15:48;24.83;;;2.85;;
78302;SDS011;67559;24.140;-110.296;2024-01-11T15:18:17;21.80;;;2.40;;
78302;SDS011;67559;24.140;-110.296;2024-01-11T15:20:46;30.13;;;2.40;;
78302;SDS011;67559;24.140;-110.296;2024-01-11T15:23:15;36.85;;;3.08;;
78302;SDS011;67559;24.140;-110.296;2024-01-11T15:25:45;32.78;;;3.05;;
78302;SDS011;67559;24.140;-110.296;2024-01-11T15:28:14;43.13;;;3.95;;
78302;SDS011;67559;24.140;-110.296;2024-01-11T15:30:43;27.52;;;2.28;;
78302;SDS011;67559;24.140;-110.296;2024-01-11T15:33:13;29.35;;;2.83;;
78302;SDS011;67559;24.140;-110.296;2024-01-11T15:35:42;18.65;;;2.72;;
78302;SDS011;67559;24.140;-110.296;2024-01-11T15:38:11;45.65;;;4.32;;
78302;SDS011;67559;24.140;-110.296;2024-01-11T15:40:41;29.60;;;2.85;;
78302;SDS011;67559;24.140;-110.296;2024-01-11T15:43:11;38.45;;;3.25;;